Time;durP1;ratioP1;P1;durP2;ratioP2;P2;SDS_P1;SDS_P2;PMS_P1;PMS_P2;Temp;Humidity;BMP_temperature;BMP_pressure;BME280_temperature;BME280_humidity;BME280_pressure;Samples;Min_cycle;Max_cycle;Signal;HPM_P1;HPM_P2
2021/05/13 09:27:53;;;;;;;4.38;1.70;;;;;;;18.13;43.26;98114.13;5111282;27;20355;-86
2021/05/13 09:30:24;;;;;;;6.22;1.58;;;;;;;18.31;44.29;98125.84;5111513;28;20059;-86
2021/05/13 09:32:55;;;;;;;4.70;1.25;;;;;;;18.24;44.35;98117.78;5111381;28;20058;-83
2021/05/13 09:35:29;;;;;;;3.13;1.33;;;;;;;18.26;44.00;98121.13;5111408;28;20051;-82
2021/05/13 09:38:00;;;;;;;3.55;1.13;;;;;;;18.09;44.95;98104.72;5111295;28;20105;-84
2021/05/13 09:40:38;;;;;;;2.50;1.80;;;;;;;18.08;45.06;98119.56;5111274;28;20052;-84
2021/05/13 09:43:15;;;;;;;3.20;1.77;;;;;;;18.01;45.56;98103.28;5111331;28;20475;-83
2021/05/13 09:45:43;;;;;;;3.97;1.67;;;;;;;18.11;46.68;98107.22;5110458;28;20043;-83
2021/05/13 09:48:09;;;;;;;3.70;1.50;;;;;;;18.31;49.02;98088.16;5104665;28;20063;-83
2021/05/13 09:50:36;;;;;;;5.30;1.77;;;;;;;18.65;45.27;98101.66;5090655;28;20408;-80
2021/05/13 09:53:03;;;;;;;2.85;1.42;;;;;;;18.79;48.12;98093.75;5090794;28;20056;-80
2021/05/13 09:55:30;;;;;;;2.15;1.45;;;;;;;18.91;45.00;98099.09;5088590;28;20102;-80
2021/05/13 09:58:01;;;;;;;5.03;1.55;;;;;;;18.83;45.06;98092.13;5086089;28;20097;-80
2021/05/13 10:00:37;;;;;;;6.07;1.65;;;;;;;19.29;44.93;98083.34;5098749;28;20052;-80
2021/05/13 10:03:07;;;;;;;3.90;2.17;;;;;;;19.14;43.97;98083.28;5108829;28;20048;-81
2021/05/13 10:05:33;;;;;;;;;;;;;;;18.96;40.29;98096.38;5098101;28;20036;-80
2021/05/13 10:07:59;;;;;;;2.92;1.15;;;;;;;19.21;42.93;98089.34;5088148;28;19928;-80
2021/05/13 10:10:26;;;;;;;3.55;1.10;;;;;;;19.25;39.58;98084.97;5091391;28;20067;-80
2021/05/13 10:12:55;;;;;;;1.98;1.00;;;;;;;19.79;41.72;98070.03;5107585;28;20518;-80
2021/05/13 10:15:22;;;;;;;4.22;1.45;;;;;;;19.75;39.47;98090.94;5107869;28;20047;-81
2021/05/13 10:17:51;;;;;;;2.15;1.35;;;;;;;19.83;41.12;98076.69;5091222;28;20051;-80
2021/05/13 10:20:21;;;;;;;2.10;1.27;;;;;;;19.80;41.95;98075.28;5067949;28;20491;-80
2021/05/13 10:22:48;;;;;;;2.58;1.20;;;;;;;19.77;41.59;98073.06;5091705;28;20123;-80
2021/05/13 10:25:20;;;;;;;3.45;1.17;;;;;;;19.88;40.22;98071.16;5107943;28;20457;-80
2021/05/13 10:27:50;;;;;;;4.68;1.02;;;;;;;19.09;38.25;98075.81;5106047;28;20089;-80
2021/05/13 10:30:17;;;;;;;4.22;1.40;;;;;;;19.24;39.25;98067.63;5108118;28;20116;-80
2021/05/13 10:32:43;;;;;;;2.67;1.23;;;;;;;19.56;38.43;98066.63;5108540;27;20048;-80
2021/05/13 10:35:31;;;;;;;1.85;0.80;;;;;;;19.25;38.34;98074.78;5078990;28;20048;-80
2021/05/13 10:38:00;;;;;;;3.50;1.17;;;;;;;19.05;41.97;98070.00;5089907;28;20048;-79
2021/05/13 10:40:31;;;;;;;5.82;1.20;;;;;;;18.77;42.38;98071.16;5094448;28;20055;-80
2021/05/13 10:43:03;;;;;;;4.65;1.33;;;;;;;18.45;44.93;98062.94;5094532;28;20291;-80
2021/05/13 10:45:38;;;;;;;3.72;1.65;;;;;;;18.54;43.21;98075.13;5082689;28;20052;-80
2021/05/13 10:48:32;;;;;;;2.45;1.50;;;;;;;18.38;44.85;98075.00;5074220;28;20051;-81
2021/05/13 10:51:02;;;;;;;2.13;1.38;;;;;;;18.15;44.36;98067.91;5080774;28;20625;-80
2021/05/13 10:53:43;;;;;;;2.25;1.15;;;;;;;17.99;44.78;98055.97;5089767;28;20051;-80
2021/05/13 10:56:22;;;;;;;2.00;1.17;;;;;;;18.22;46.29;98059.47;5065822;28;20101;-81
2021/05/13 10:59:14;;;;;;;2.47;0.83;;;;;;;18.34;45.71;98067.56;5094302;28;20051;-81
2021/05/13 11:01:44;;;;;;;2.65;1.15;;;;;;;18.25;45.56;98055.38;5093463;28;20070;-81
2021/05/13 11:04:51;;;;;;;2.70;1.20;;;;;;;18.13;44.27;98064.59;5094056;28;20044;-81
2021/05/13 11:07:28;;;;;;;3.78;1.17;;;;;;;17.95;43.97;98062.25;5030632;28;20095;-80
2021/05/13 11:09:56;;;;;;;2.40;1.27;;;;;;;17.81;45.37;98056.28;5088407;28;20055;-79
2021/05/13 11:12:24;;;;;;;3.00;1.52;;;;;;;17.63;45.98;98066.56;5084598;28;20048;-81
2021/05/13 11:15:22;;;;;;;3.25;1.23;;;;;;;17.63;46.80;98054.72;5093432;28;20055;-81
2021/05/13 11:20:57;;;;;;;2.85;0.95;;;;;;;17.61;47.42;98068.72;5090447;28;20055;-81
2021/05/13 11:23:30;;;;;;;5.65;1.27;;;;;;;18.32;46.55;98058.72;5095434;28;20056;-82
2021/05/13 11:26:00;;;;;;;1.80;0.98;;;;;;;18.64;46.55;98068.84;5095328;28;20134;-83
2021/05/13 11:28:29;;;;;;;5.23;1.40;;;;;;;18.41;45.59;98062.63;5095642;28;20142;-83
2021/05/13 11:30:57;;;;;;;3.55;1.40;;;;;;;18.62;46.05;98071.88;5082125;28;20345;-83
2021/05/13 11:33:24;;;;;;;4.75;1.45;;;;;;;19.13;44.11;98059.56;5073480;28;20045;-83
2021/05/13 11:35:50;;;;;;;2.10;1.33;;;;;;;19.25;44.44;98051.91;5082283;28;20540;-83
2021/05/13 11:38:27;;;;;;;3.28;1.55;;;;;;;19.12;45.41;98050.47;5093607;28;20051;-83
2021/05/13 11:40:54;;;;;;;4.93;1.60;;;;;;;19.15;45.79;98062.88;5092656;28;20047;-83
2021/05/13 11:43:23;;;;;;;7.70;2.30;;;;;;;19.18;44.82;98062.34;5093503;28;20100;-83
2021/05/13 11:45:51;;;;;;;3.58;1.40;;;;;;;18.90;41.77;98047.88;5084783;28;20047;-83
2021/05/13 11:48:23;;;;;;;2.22;0.80;;;;;;;18.99;43.35;98070.25;5093772;28;20139;-82
2021/05/13 11:50:50;;;;;;;7.00;1.48;;;;;;;18.69;45.35;98066.16;5094237;28;20098;-83
2021/05/13 11:53:18;;;;;;;5.05;2.17;;;;;;;17.72;48.58;98077.06;5094826;28;20117;-82
2021/05/13 11:55:47;;;;;;;3.80;1.10;;;;;;;17.31;50.97;98067.28;5094515;28;20468;-82
2021/05/13 11:58:40;;;;;;;3.90;1.10;;;;;;;17.12;51.87;98082.41;5082579;28;20053;-82
2021/05/13 12:01:36;;;;;;;3.15;1.65;;;;;;;16.30;53.65;98071.00;5074580;28;20457;-81
2021/05/13 12:04:11;;;;;;;2.63;1.00;;;;;;;15.97;54.53;98083.56;5074485;28;20053;-81
2021/05/13 12:06:51;;;;;;;3.22;1.08;;;;;;;15.97;52.67;98082.75;5074250;28;20480;-83
2021/05/13 12:09:19;;;;;;;2.40;0.70;;;;;;;15.86;52.53;98081.75;5074739;28;20068;-84
2021/05/13 12:11:50;;;;;;;1.38;0.80;;;;;;;16.08;53.55;98090.09;5074236;28;20052;-84
2021/05/13 12:14:23;;;;;;;0.68;0.50;;;;;;;15.84;53.74;98081.16;5079323;28;20043;-83
2021/05/13 12:16:53;;;;;;;1.13;0.60;;;;;;;15.89;55.45;98076.59;5094467;28;20068;-84
2021/05/13 12:19:20;;;;;;;0.85;0.60;;;;;;;15.92;52.09;98064.31;5094591;28;20056;-83
2021/05/13 12:21:52;;;;;;;4.00;0.70;;;;;;;16.12;51.78;98063.81;5094229;28;20044;-83
2021/05/13 12:24:25;;;;;;;8.77;0.77;;;;;;;16.42;51.22;98057.19;5093971;28;20063;-83
2021/05/13 12:26:53;;;;;;;1.15;0.43;;;;;;;16.56;47.15;98053.03;5083085;28;20124;-83
2021/05/13 12:29:20;;;;;;;0.50;0.40;;;;;;;17.03;46.10;98048.25;5052321;28;20075;-83
2021/05/13 12:31:49;;;;;;;1.02;0.70;;;;;;;17.48;45.16;98067.22;5054176;28;20045;-84
2021/05/13 12:34:34;;;;;;;0.60;0.43;;;;;;;17.63;43.74;98062.97;5053574;28;20162;-83
2021/05/13 12:37:01;;;;;;;1.73;0.70;;;;;;;17.81;43.35;98045.28;5053514;28;20136;-83
2021/05/13 12:39:31;;;;;;;2.15;0.85;;;;;;;18.13;42.70;98052.78;5053815;28;20141;-84
2021/05/13 12:41:59;;;;;;;5.38;2.15;;;;;;;18.28;44.21;98057.59;5053264;28;20057;-83
2021/05/13 12:44:26;;;;;;;2.28;0.93;;;;;;;18.52;43.73;98069.88;5053089;28;20049;-83
2021/05/13 12:46:54;;;;;;;5.65;1.20;;;;;;;18.38;44.46;98050.25;5053346;28;20087;-82
2021/05/13 12:49:24;;;;;;;1.75;0.98;;;;;;;18.45;44.63;98054.69;5053419;28;20063;-82
2021/05/13 12:52:08;;;;;;;6.78;1.10;;;;;;;18.46;47.46;98065.44;5053090;28;20179;-82
2021/05/13 12:54:36;;;;;;;2.30;1.00;;;;;;;18.18;48.07;98039.06;5053309;28;20049;-83
2021/05/13 12:57:15;;;;;;;1.92;1.10;;;;;;;18.19;48.63;98069.06;5053209;28;20059;-83
2021/05/13 12:59:43;;;;;;;1.48;0.70;;;;;;;18.08;50.32;98049.97;5052812;28;20136;-83
2021/05/13 13:02:09;;;;;;;2.35;1.30;;;;;;;17.80;49.64;98071.94;5053327;28;20060;-83
2021/05/13 13:04:50;;;;;;;2.25;0.73;;;;;;;17.26;49.74;98069.94;5053249;28;20045;-82
2021/05/13 13:07:16;;;;;;;5.35;0.90;;;;;;;17.31;51.37;98078.28;5052685;28;20045;-83
2021/05/13 13:09:43;;;;;;;2.60;0.88;;;;;;;17.59;48.11;98067.34;5053106;28;20079;-83
2021/05/13 13:12:14;;;;;;;3.25;1.27;;;;;;;17.57;49.39;98059.34;5052010;28;20060;-82
2021/05/13 13:14:43;;;;;;;2.17;1.17;;;;;;;17.77;50.53;98052.41;5052700;28;20408;-82
2021/05/13 13:17:23;;;;;;;4.78;1.60;;;;;;;18.07;49.97;98071.16;5052804;28;20067;-82
2021/05/13 13:20:03;;;;;;;;;;;;;;;17.55;51.77;98069.75;5053915;28;20412;-83
2021/05/13 13:22:30;;;;;;;2.67;0.75;;;;;;;17.65;51.13;98074.53;5052850;28;19954;-82
2021/05/13 13:25:08;;;;;;;3.38;1.00;;;;;;;17.39;51.43;98059.66;5052697;28;20045;-82
2021/05/13 13:27:37;;;;;;;2.75;0.90;;;;;;;17.42;48.79;98070.13;5052397;28;20045;-82
2021/05/13 13:30:10;;;;;;;4.32;1.05;;;;;;;17.18;48.84;98062.16;5053494;28;20061;-83
2021/05/13 13:32:36;;;;;;;4.68;0.82;;;;;;;17.31;49.10;98061.78;5053305;28;20049;-82
2021/05/13 13:35:08;;;;;;;4.75;0.98;;;;;;;17.26;50.05;98074.63;5052202;28;20505;-83
2021/05/13 13:37:34;;;;;;;1.95;0.98;;;;;;;17.37;49.56;98081.06;5052707;28;20155;-80
2021/05/13 13:40:00;;;;;;;2.17;0.80;;;;;;;17.01;48.95;98061.38;5052773;28;20053;-80
2021/05/13 13:42:29;;;;;;;6.65;1.00;;;;;;;17.03;48.98;98061.97;5051979;28;20041;-80
2021/05/13 13:44:57;;;;;;;1.55;0.68;;;;;;;16.81;50.25;98084.69;5052190;28;20053;-80
2021/05/13 13:47:26;;;;;;;3.20;1.10;;;;;;;16.62;50.13;98071.25;5052886;28;20055;-81
2021/05/13 13:49:52;;;;;;;2.38;0.75;;;;;;;16.69;50.14;98087.50;5060773;28;20079;-81
2021/05/13 13:52:20;;;;;;;2.63;0.80;;;;;;;16.48;50.60;98094.59;5073294;28;20079;-81
2021/05/13 13:54:46;;;;;;;4.10;1.05;;;;;;;16.67;51.90;98075.16;5072824;28;20048;-81
2021/05/13 13:57:12;;;;;;;5.00;0.93;;;;;;;16.72;51.00;98083.44;5072860;28;20052;-81
2021/05/13 13:59:39;;;;;;;2.22;0.60;;;;;;;16.61;52.04;98104.41;5072801;28;20152;-81
2021/05/13 14:02:05;;;;;;;5.47;0.90;;;;;;;16.75;52.82;98108.47;5073126;28;20098;-82
2021/05/13 14:04:32;;;;;;;3.75;1.98;;;;;;;16.27;53.82;98109.88;5072103;28;20053;-81
2021/05/13 14:06:58;;;;;;;3.20;0.95;;;;;;;16.18;55.27;98095.72;5072682;28;20393;-82
2021/05/13 14:09:25;;;;;;;0.98;0.90;;;;;;;16.13;54.38;98111.28;5072919;28;20063;-82
2021/05/13 14:11:53;;;;;;;2.53;0.80;;;;;;;15.80;54.64;98099.16;5072401;28;20049;-81
2021/05/13 14:14:19;;;;;;;3.90;0.90;;;;;;;15.83;54.42;98113.19;5075819;28;20059;-82
2021/05/13 14:16:46;;;;;;;2.03;0.60;;;;;;;15.70;55.03;98114.31;5076393;28;20094;-78
2021/05/13 14:19:13;;;;;;;1.55;0.47;;;;;;;15.44;53.46;98104.72;5076366;28;20121;-80
2021/05/13 14:21:40;;;;;;;1.92;0.50;;;;;;;15.44;54.60;98129.38;5076308;28;20133;-80
2021/05/13 14:24:07;;;;;;;0.52;0.52;;;;;;;15.09;56.50;98133.00;5076412;28;20437;-80
2021/05/13 14:26:33;;;;;;;0.70;0.50;;;;;;;15.14;56.66;98124.06;5076259;28;20060;-81
2021/05/13 14:29:00;;;;;;;0.30;0.30;;;;;;;14.92;57.62;98112.91;5076361;28;20048;-80
2021/05/13 14:31:26;;;;;;;3.10;0.57;;;;;;;14.85;58.73;98126.72;5076301;28;20553;-79
2021/05/13 14:33:52;;;;;;;7.85;0.88;;;;;;;14.51;60.08;98132.72;5076406;28;20044;-80
2021/05/13 14:36:18;;;;;;;1.80;0.70;;;;;;;14.62;60.42;98125.63;5076151;28;20045;-79
2021/05/13 14:38:46;;;;;;;1.92;0.68;;;;;;;14.33;61.21;98125.44;5076087;28;20052;-80
2021/05/13 14:41:12;;;;;;;0.98;0.52;;;;;;;14.45;61.72;98119.16;5076196;28;20052;-80
2021/05/13 14:43:38;;;;;;;2.90;0.60;;;;;;;14.51;61.09;98121.78;5076132;28;20102;-79
2021/05/13 14:46:05;;;;;;;0.60;0.50;;;;;;;14.28;61.26;98117.09;5076291;28;20048;-80
2021/05/13 14:48:36;;;;;;;3.05;0.90;;;;;;;14.10;61.57;98109.81;5075903;28;20057;-80
2021/05/13 14:51:02;;;;;;;2.03;0.70;;;;;;;14.11;62.11;98106.03;5075898;28;20488;-80
2021/05/13 14:53:32;;;;;;;3.80;0.80;;;;;;;14.12;61.85;98107.69;5075439;28;20057;-81
2021/05/13 14:55:59;;;;;;;2.42;0.57;;;;;;;14.15;61.93;98114.56;5055791;28;20049;-81
2021/05/13 14:58:25;;;;;;;1.80;0.75;;;;;;;14.32;60.94;98114.75;5056118;28;20069;-81
2021/05/13 15:00:54;;;;;;;1.95;1.00;;;;;;;14.23;61.14;98108.78;5059420;28;20040;-81
2021/05/13 15:03:20;;;;;;;0.77;0.77;;;;;;;14.05;60.91;98106.97;5076019;28;20063;-82
2021/05/13 15:05:48;;;;;;;0.60;0.60;;;;;;;13.60;61.94;98093.72;5075297;28;20045;-81
2021/05/13 15:08:14;;;;;;;1.02;0.90;;;;;;;13.96;61.21;98097.44;5075354;28;20056;-81
2021/05/13 15:10:40;;;;;;;2.05;0.80;;;;;;;13.87;60.98;98088.72;5067705;28;20060;-81
2021/05/13 15:13:10;;;;;;;0.68;0.65;;;;;;;14.25;60.11;98092.16;5054759;28;20052;-81
2021/05/13 15:15:36;;;;;;;1.08;0.63;;;;;;;14.39;59.81;98084.56;5054636;28;20131;-81
2021/05/13 15:18:03;;;;;;;2.17;0.93;;;;;;;14.59;59.70;98103.34;5055482;28;20087;-80
2021/05/13 15:20:30;;;;;;;0.85;0.70;;;;;;;14.61;58.96;98090.31;5054785;28;20493;-80
2021/05/13 15:22:56;;;;;;;0.68;0.60;;;;;;;14.83;60.05;98098.78;5054536;28;20416;-80
2021/05/13 15:25:22;;;;;;;0.50;0.50;;;;;;;15.17;58.38;98090.75;5054735;28;20413;-81
2021/05/13 15:27:49;;;;;;;1.35;0.57;;;;;;;15.54;57.87;98091.25;5055310;28;20481;-81
2021/05/13 15:30:36;;;;;;;1.70;0.60;;;;;;;15.99;56.66;98088.81;5054266;28;20055;-81
2021/05/13 15:33:03;;;;;;;2.78;1.25;;;;;;;16.17;55.59;98104.22;5071335;28;20205;-81
2021/05/13 15:35:36;;;;;;;2.90;1.10;;;;;;;15.83;56.42;98088.53;5074513;28;20055;-80
2021/05/13 15:38:02;;;;;;;12.40;0.73;;;;;;;15.75;56.37;98089.72;5075300;28;20487;-81
2021/05/13 15:40:29;;;;;;;1.20;0.40;;;;;;;15.54;56.55;98091.25;5074574;28;20053;-80
2021/05/13 15:43:33;;;;;;;1.02;0.47;;;;;;;15.77;56.29;98103.19;5074915;28;20110;-80
2021/05/13 15:46:00;;;;;;;0.25;0.22;;;;;;;15.40;56.03;98093.44;5074594;28;20066;-81
2021/05/13 15:48:26;;;;;;;0.90;0.40;;;;;;;15.72;55.63;98095.72;5074905;28;20049;-81
2021/05/13 15:51:12;;;;;;;0.20;0.20;;;;;;;16.27;55.12;98110.72;5074617;28;20044;-81
2021/05/13 15:53:39;;;;;;;0.30;0.30;;;;;;;16.18;51.57;98090.25;5074838;28;20056;-80
2021/05/13 15:56:05;;;;;;;0.10;0.10;;;;;;;16.26;52.17;98092.59;5074358;28;20057;-80
2021/05/13 15:58:32;;;;;;;0.30;0.30;;;;;;;16.26;51.67;98106.31;5074655;28;20054;-81
2021/05/13 16:00:58;;;;;;;0.20;0.20;;;;;;;16.06;52.76;98106.78;5074330;28;20615;-81
2021/05/13 16:03:26;;;;;;;0.10;0.10;;;;;;;15.97;52.95;98091.78;5074106;28;20045;-81
2021/05/13 16:05:52;;;;;;;0.35;0.10;;;;;;;16.14;52.74;98108.31;5074050;28;20404;-81
2021/05/13 16:08:22;;;;;;;0.20;0.20;;;;;;;15.87;53.55;98103.41;5090342;28;20491;-80
2021/05/13 16:10:56;;;;;;;1.10;0.30;;;;;;;15.94;54.08;98108.72;5094505;28;20059;-80
2021/05/13 16:13:26;;;;;;;0.43;0.22;;;;;;;15.78;54.04;98107.63;5078207;28;20119;-81
2021/05/13 16:15:53;;;;;;;0.20;0.20;;;;;;;15.87;55.16;98103.41;5073990;28;20064;-81
2021/05/13 16:18:20;;;;;;;0.20;0.20;;;;;;;15.77;55.42;98089.50;5073685;28;20056;-80
2021/05/13 16:21:00;;;;;;;0.40;0.40;;;;;;;15.88;55.87;98098.75;5073989;28;20451;-79
2021/05/13 16:23:27;;;;;;;0.40;0.32;;;;;;;15.96;55.81;98083.81;5074029;28;20055;-80
2021/05/13 16:26:01;;;;;;;0.40;0.35;;;;;;;15.81;56.15;98103.59;5073401;28;20712;-80
2021/05/13 16:28:31;;;;;;;4.95;0.32;;;;;;;16.03;56.81;98112.78;5073806;28;20057;-80
2021/05/13 16:31:00;;;;;;;0.20;0.20;;;;;;;15.78;56.58;98093.09;5073251;28;20110;-80
2021/05/13 16:33:27;;;;;;;0.50;0.20;;;;;;;15.54;57.65;98093.16;5073441;28;20052;-80
2021/05/13 16:35:55;;;;;;;0.40;0.30;;;;;;;15.34;57.87;98096.28;5072695;28;20105;-79
2021/05/13 16:38:21;;;;;;;0.65;0.40;;;;;;;15.31;58.07;98105.00;5073397;28;20407;-80
2021/05/13 16:40:48;;;;;;;0.40;0.40;;;;;;;15.24;58.46;98101.59;5088794;28;20113;-80
2021/05/13 16:43:14;;;;;;;0.90;0.52;;;;;;;15.41;58.83;98097.00;5076234;28;20461;-80
2021/05/13 16:45:40;;;;;;;0.40;0.40;;;;;;;15.55;58.52;98097.53;5073195;28;20052;-80
2021/05/13 16:48:07;;;;;;;0.50;0.50;;;;;;;15.38;57.40;98102.97;5073544;28;20044;-81
2021/05/13 16:50:34;;;;;;;0.30;0.30;;;;;;;15.00;57.65;98096.13;5073215;28;20553;-81
2021/05/13 16:53:01;;;;;;;0.40;0.40;;;;;;;14.97;57.91;98093.88;5073475;28;20075;-81
2021/05/13 16:55:28;;;;;;;0.95;0.30;;;;;;;14.90;57.55;98104.94;5065770;28;20053;-80
2021/05/13 16:57:54;;;;;;;0.63;0.30;;;;;;;14.91;57.77;98098.41;5066705;28;20711;-81
2021/05/13 17:00:22;;;;;;;1.10;0.40;;;;;;;14.91;57.77;98111.25;5071844;28;20044;-80
2021/05/13 17:02:49;;;;;;;0.43;0.30;;;;;;;14.83;56.30;98113.28;5072326;28;20056;-80
2021/05/13 17:05:21;;;;;;;0.47;0.40;;;;;;;14.78;56.48;98115.88;5072441;28;20076;-81
2021/05/13 17:07:58;;;;;;;2.10;0.45;;;;;;;14.70;56.50;98113.50;5072954;28;20123;-81
2021/05/13 17:10:26;;;;;;;0.90;0.30;;;;;;;14.64;56.51;98119.94;5073139;28;20118;-80
2021/05/13 17:12:53;;;;;;;0.60;0.38;;;;;;;14.74;57.41;98138.47;5072049;28;20599;-80
2021/05/13 17:15:19;;;;;;;0.63;0.40;;;;;;;14.45;56.34;98120.00;5071077;28;20051;-80
2021/05/13 17:17:46;;;;;;;0.25;0.25;;;;;;;14.52;56.91;98130.81;5093855;28;20090;-80
2021/05/13 17:20:15;;;;;;;0.28;0.28;;;;;;;14.41;56.51;98128.91;5076355;28;20051;-81
2021/05/13 17:22:42;;;;;;;0.45;0.30;;;;;;;14.46;57.08;98135.31;5086857;28;20097;-80
2021/05/13 17:25:10;;;;;;;1.83;0.47;;;;;;;14.30;57.17;98130.53;5093191;28;20056;-80
2021/05/13 17:27:38;;;;;;;0.30;0.30;;;;;;;14.13;57.10;98133.94;5093267;28;20047;-80
2021/05/13 17:30:07;;;;;;;0.68;0.40;;;;;;;14.02;57.79;98128.47;5088153;28;20139;-81
2021/05/13 17:32:34;;;;;;;0.30;0.30;;;;;;;14.10;57.37;98139.88;5073096;28;20048;-81
2021/05/13 17:35:00;;;;;;;0.38;0.30;;;;;;;14.07;57.43;98131.31;5072973;28;20055;-80
2021/05/13 17:37:26;;;;;;;0.65;0.40;;;;;;;14.16;57.55;98144.41;5073626;28;20056;-80
2021/05/13 17:39:57;;;;;;;0.43;0.43;;;;;;;13.95;57.73;98144.94;5057256;28;20569;-80
2021/05/13 17:42:23;;;;;;;0.40;0.40;;;;;;;13.77;57.93;98122.03;5092722;28;20578;-80
2021/05/13 17:44:52;;;;;;;0.32;0.32;;;;;;;13.88;58.68;98147.78;5092894;28;20457;-81
2021/05/13 17:47:19;;;;;;;0.20;0.20;;;;;;;13.58;59.22;98129.47;5079991;28;20131;-81
2021/05/13 17:49:45;;;;;;;0.73;0.55;;;;;;;13.72;59.27;98148.41;5076079;28;20056;-81
2021/05/13 17:52:11;;;;;;;0.63;0.50;;;;;;;13.87;60.52;98135.16;5076432;28;20510;-81
2021/05/13 17:54:38;;;;;;;2.22;0.45;;;;;;;13.76;59.30;98146.88;5076316;28;20139;-81
2021/05/13 17:57:05;;;;;;;0.75;0.40;;;;;;;13.69;59.25;98149.69;5076439;28;20044;-81
2021/05/13 17:59:31;;;;;;;1.27;0.65;;;;;;;13.67;58.20;98154.56;5076118;28;20055;-81
2021/05/13 18:01:58;;;;;;;2.00;0.75;;;;;;;13.71;58.50;98155.75;5083259;28;20047;-81
2021/05/13 18:04:30;;;;;;;1.08;0.43;;;;;;;13.61;57.85;98163.69;5083498;28;20048;-81
2021/05/13 18:06:56;;;;;;;0.50;0.35;;;;;;;13.38;57.20;98159.75;5082575;28;20048;-81
2021/05/13 18:09:27;;;;;;;0.30;0.20;;;;;;;13.21;56.90;98169.56;5074926;28;20052;-81
2021/05/13 18:11:53;;;;;;;1.55;0.30;;;;;;;13.18;57.68;98156.38;5074326;28;20060;-81
2021/05/13 18:14:20;;;;;;;1.30;0.20;;;;;;;13.09;58.11;98161.28;5094675;28;20044;-81
2021/05/13 18:16:46;;;;;;;1.00;0.38;;;;;;;13.10;57.68;98166.50;5095839;28;20048;-81
2021/05/13 18:19:13;;;;;;;0.93;0.40;;;;;;;13.00;58.82;98168.91;5096229;28;20048;-81
2021/05/13 18:21:40;;;;;;;0.20;0.20;;;;;;;13.02;59.33;98182.34;5095466;28;20162;-81
2021/05/13 18:24:09;;;;;;;0.55;0.40;;;;;;;13.00;58.82;98168.91;5096278;28;20101;-81
2021/05/13 18:26:36;;;;;;;1.27;0.60;;;;;;;13.05;58.58;98187.34;5096123;28;20581;-81
2021/05/13 18:29:04;;;;;;;4.22;0.77;;;;;;;12.98;59.69;98171.03;5069176;28;20132;-81
2021/05/13 18:31:31;;;;;;;1.05;0.68;;;;;;;13.04;58.92;98188.41;5065581;28;20048;-81
2021/05/13 18:33:57;;;;;;;1.25;0.98;;;;;;;13.14;59.50;98194.16;5074511;28;20078;-77
2021/05/13 18:36:25;;;;;;;0.50;0.50;;;;;;;12.97;59.44;98183.00;5075498;28;20049;-79
2021/05/13 18:38:54;;;;;;;0.90;0.47;;;;;;;12.98;59.27;98186.59;5075414;28;20049;-79
2021/05/13 18:41:21;;;;;;;1.67;0.50;;;;;;;12.82;59.33;98187.97;5075576;28;20416;-81
2021/05/13 18:43:47;;;;;;;0.30;0.30;;;;;;;12.66;59.71;98187.50;5069168;28;20055;-81
2021/05/13 18:46:15;;;;;;;0.25;0.25;;;;;;;12.52;59.89;98180.47;5067827;28;20052;-81
2021/05/13 18:48:42;;;;;;;0.30;0.30;;;;;;;12.64;60.40;98186.84;5076028;28;20048;-81
2021/05/13 18:51:09;;;;;;;0.20;0.20;;;;;;;12.53;60.35;98179.41;5074846;28;20592;-81
2021/05/13 18:53:38;;;;;;;0.13;0.13;;;;;;;12.44;60.81;98173.38;5075102;28;20048;-81
2021/05/13 18:56:07;;;;;;;0.20;0.20;;;;;;;12.53;61.10;98182.97;5075470;28;20102;-81
2021/05/13 18:58:36;;;;;;;0.20;0.20;;;;;;;12.66;61.20;98208.44;5073973;28;20066;-81
2021/05/13 19:01:11;;;;;;;1.25;0.28;;;;;;;12.50;61.05;98212.56;5074943;28;20040;-81
2021/05/13 19:03:37;;;;;;;0.63;0.40;;;;;;;12.56;61.74;98214.41;5055309;28;20057;-81
2021/05/13 19:06:04;;;;;;;2.67;0.57;;;;;;;12.56;61.62;98212.50;5061177;28;20059;-81
2021/05/13 19:08:34;;;;;;;0.38;0.38;;;;;;;12.50;61.63;98207.13;5091472;28;20052;-81
2021/05/13 19:11:01;;;;;;;0.52;0.40;;;;;;;12.44;61.72;98230.63;5075280;28;20105;-81
2021/05/13 19:13:28;;;;;;;1.02;0.40;;;;;;;12.34;61.93;98211.19;5074453;28;20147;-81
2021/05/13 19:16:20;;;;;;;0.38;0.38;;;;;;;12.56;62.91;98234.31;5053567;28;20497;-81
2021/05/13 19:18:47;;;;;;;0.30;0.30;;;;;;;12.43;62.72;98215.31;5063129;28;20044;-80
2021/05/13 19:21:13;;;;;;;0.60;0.40;;;;;;;12.44;62.87;98218.91;5077766;28;20492;-81
2021/05/13 19:23:39;;;;;;;0.40;0.40;;;;;;;12.53;63.16;98226.59;5094609;28;20079;-81
2021/05/13 19:26:15;;;;;;;0.20;0.20;;;;;;;12.55;63.87;98220.91;5091422;28;20061;-82
2021/05/13 19:28:45;;;;;;;0.30;0.30;;;;;;;12.51;63.70;98236.03;5074669;28;20052;-81
2021/05/13 19:31:23;;;;;;;2.67;0.43;;;;;;;12.39;62.88;98222.28;5074491;28;20099;-81
2021/05/13 19:36:33;;;;;;;0.43;0.40;;;;;;;12.34;61.89;98227.56;5054065;28;20056;-81
2021/05/13 19:38:59;;;;;;;0.57;0.57;;;;;;;12.38;61.73;98240.50;5054414;28;20056;-81
2021/05/13 19:41:27;;;;;;;0.57;0.52;;;;;;;12.43;61.92;98233.59;5055242;28;20119;-82
2021/05/13 19:43:53;;;;;;;0.60;0.60;;;;;;;12.38;61.59;98226.06;5054481;28;20048;-82
2021/05/13 19:46:20;;;;;;;0.70;0.70;;;;;;;12.46;62.50;98236.69;5091533;28;20040;-82
2021/05/13 19:48:48;;;;;;;1.70;0.40;;;;;;;12.38;62.48;98229.63;5081932;28;20048;-81
2021/05/13 19:51:15;;;;;;;1.05;0.50;;;;;;;12.50;62.99;98250.72;5073958;28;20044;-82
2021/05/13 19:53:41;;;;;;;0.60;0.60;;;;;;;12.27;62.72;98213.97;5073301;28;20711;-81
2021/05/13 19:56:08;;;;;;;1.10;0.57;;;;;;;12.35;63.48;98224.59;5074093;28;20045;-81
2021/05/13 19:58:38;;;;;;;1.92;1.10;;;;;;;12.50;63.64;98232.47;5073676;28;20044;-81
2021/05/13 20:01:06;;;;;;;0.40;0.40;;;;;;;12.31;62.26;98222.53;5073921;28;20036;-81
2021/05/13 20:03:36;;;;;;;0.60;0.60;;;;;;;12.34;62.83;98246.63;5074205;28;20052;-81
2021/05/13 20:06:08;;;;;;;;;;;;;;;12.33;63.54;98242.22;5071873;28;20053;-81
2021/05/13 20:08:51;;;;;;;2.40;0.60;;;;;;;12.32;62.85;98240.56;5074012;28;19921;-81
2021/05/13 20:11:20;;;;;;;0.50;0.50;;;;;;;12.17;62.88;98235.41;5072646;28;20059;-81
2021/05/13 20:13:48;;;;;;;1.07;0.40;;;;;;;12.26;63.61;98249.63;5073870;28;20044;-81
2021/05/13 20:16:16;;;;;;;0.68;0.43;;;;;;;12.30;64.46;98238.06;5073556;28;20059;-80
2021/05/13 20:18:43;;;;;;;0.45;0.45;;;;;;;12.17;63.27;98229.97;5073771;28;20133;-81
2021/05/13 20:21:12;;;;;;;0.60;0.50;;;;;;;12.24;63.83;98238.94;5073503;28;20055;-80
2021/05/13 20:23:42;;;;;;;0.60;0.60;;;;;;;12.19;64.04;98244.19;5053836;28;20064;-80
2021/05/13 20:26:17;;;;;;;;;;;;;;;12.11;63.95;98237.09;5059287;28;20068;-81
2021/05/13 20:28:46;;;;;;;0.40;0.40;;;;;;;12.07;64.10;98238.59;5073039;28;19921;-81
2021/05/13 20:31:17;;;;;;;0.43;0.30;;;;;;;12.08;64.30;98242.16;5073645;28;20055;-81
2021/05/13 20:33:44;;;;;;;0.88;0.50;;;;;;;11.90;64.80;98216.44;5073663;28;20502;-81
2021/05/13 20:36:11;;;;;;;0.40;0.40;;;;;;;12.03;65.38;98229.19;5072296;28;20059;-81
2021/05/13 20:38:38;;;;;;;0.47;0.45;;;;;;;11.99;64.89;98225.25;5073307;28;20499;-81
2021/05/13 20:41:08;;;;;;;0.60;0.40;;;;;;;11.92;65.63;98217.03;5073375;28;20056;-81
2021/05/13 20:43:37;;;;;;;;;;;;;;;12.15;66.06;98232.91;5073678;28;20053;-81
2021/05/13 20:46:05;;;;;;;0.60;0.60;;;;;;;11.91;65.56;98209.09;5073718;28;19920;-81
2021/05/13 20:48:34;;;;;;;0.45;0.40;;;;;;;11.94;66.17;98212.28;5073105;28;20059;-81
2021/05/13 20:51:23;;;;;;;0.30;0.30;;;;;;;11.93;65.91;98207.03;5073004;28;20052;-81
2021/05/13 20:59:20;;;;;;;0.40;0.40;;;;;;;12.06;66.26;98239.66;5052108;28;20083;-80
2021/05/13 21:01:47;;;;;;;0.55;0.55;;;;;;;11.96;66.03;98217.50;5067370;28;20105;-80
2021/05/13 21:04:21;;;;;;;1.15;0.70;;;;;;;11.93;66.33;98220.66;5072493;28;20087;-80
2021/05/13 21:06:58;;;;;;;0.80;0.52;;;;;;;12.03;66.19;98235.47;5072814;28;20049;-80
2021/05/13 21:09:55;;;;;;;2.38;0.50;;;;;;;11.89;66.97;98227.56;5073226;28;20047;-80
2021/05/13 21:12:38;;;;;;;0.88;0.65;;;;;;;11.83;68.52;98221.06;5072296;28;20059;-80
2021/05/13 21:20:38;;;;;;;0.98;0.52;;;;;;;11.82;67.51;98233.88;5056885;28;20060;-80
2021/05/13 21:26:00;;;;;;;1.65;1.10;;;;;;;11.81;69.00;98240.34;5028220;28;20396;-80
2021/05/13 21:28:28;;;;;;;0.47;0.47;;;;;;;11.74;69.91;98239.53;5067081;28;20041;-80
2021/05/13 21:31:01;;;;;;;0.95;0.32;;;;;;;11.66;70.02;98229.72;5072767;28;20077;-80
2021/05/13 21:33:28;;;;;;;0.60;0.60;;;;;;;11.62;70.11;98233.94;5072472;28;20063;-80